createdAt,value
2023-05-06T00:02:37.818Z,100345.66
2023-05-06T00:05:40.814Z,100348.38
2023-05-06T00:08:43.589Z,100344.88
2023-05-06T00:11:47.660Z,100341.03
2023-05-06T00:14:51.223Z,100336.38
2023-05-06T00:17:55.729Z,100330.09
2023-05-06T00:20:58.591Z,100325.41
2023-05-06T00:24:01.405Z,100330.09
2023-05-06T00:27:04.152Z,100327.50
2023-05-06T00:30:07.672Z,100331.09
2023-05-06T00:33:10.574Z,100307.91
2023-05-06T00:36:13.409Z,100330.25
2023-05-06T00:39:17.133Z,100335.72
2023-05-06T00:42:22.675Z,100332.75
2023-05-06T00:45:25.729Z,100338.84
2023-05-06T00:48:28.992Z,100332.09
2023-05-06T00:51:32.327Z,100334.97
2023-05-06T00:54:35.975Z,100327.69
2023-05-06T00:57:40.491Z,100326.94
2023-05-06T01:00:43.318Z,100326.53
2023-05-06T01:03:47.328Z,100338.94
2023-05-06T01:07:25.048Z,100330.84
2023-05-06T01:10:46.564Z,100343.16
2023-05-06T01:13:59.188Z,100331.66
2023-05-06T01:17:08.105Z,100338.88
2023-05-06T01:20:12.320Z,100335.63
2023-05-06T01:23:15.480Z,100340.63
2023-05-06T01:26:18.216Z,100343.50
2023-05-06T01:29:21.147Z,100341.41
2023-05-06T01:32:42.647Z,100340.59
2023-05-06T01:36:00.211Z,100336.50
2023-05-06T01:39:14.847Z,100335.22
2023-05-06T01:42:18.657Z,100334.59
2023-05-06T01:45:24.915Z,100319.50
2023-05-06T01:48:32.332Z,100313.44
2023-05-06T01:51:35.436Z,100322.09
2023-05-06T01:54:38.352Z,100318.19
2023-05-06T01:57:41.142Z,100319.50
2023-05-06T02:00:43.832Z,100314.19
2023-05-06T02:03:48.044Z,100311.09
2023-05-06T02:06:51.060Z,100314.00
2023-05-06T02:09:55.011Z,100305.75
2023-05-06T02:12:57.867Z,100316.81
2023-05-06T02:16:01.546Z,100314.47
2023-05-06T02:19:04.659Z,100303.75
2023-05-06T02:22:08.094Z,100313.34
2023-05-06T02:25:11.135Z,100309.97
2023-05-06T02:28:14.406Z,100312.44
2023-05-06T02:31:18.601Z,100311.78
2023-05-06T02:34:21.893Z,100317.66
2023-05-06T02:37:24.631Z,100317.31
2023-05-06T02:40:27.396Z,100317.63
2023-05-06T02:43:30.482Z,100312.28
2023-05-06T02:46:35.332Z,100316.03
2023-05-06T02:49:38.144Z,100310.16
2023-05-06T02:52:40.897Z,100312.03
2023-05-06T02:55:43.654Z,100322.41
2023-05-06T02:58:46.551Z,100316.25
2023-05-06T03:01:49.520Z,100316.72
2023-05-06T03:04:52.469Z,100315.91
2023-05-06T03:07:55.508Z,100318.84
2023-05-06T03:10:58.489Z,100319.00
2023-05-06T03:14:01.562Z,100320.47
2023-05-06T03:17:04.396Z,100317.53
2023-05-06T03:20:10.684Z,100329.06
2023-05-06T03:23:17.232Z,100324.91
2023-05-06T03:26:21.581Z,100322.78
2023-05-06T03:29:24.865Z,100328.44
2023-05-06T03:32:28.423Z,100328.94
2023-05-06T03:35:31.600Z,100332.66
2023-05-06T03:38:36.667Z,100334.91
2023-05-06T03:41:43.356Z,100333.28
2023-05-06T03:44:46.812Z,100328.44
2023-05-06T03:47:49.701Z,100329.38
2023-05-06T03:50:54.193Z,100329.84
2023-05-06T03:53:57.756Z,100332.09
2023-05-06T03:57:01.340Z,100341.97
2023-05-06T04:00:04.944Z,100345.38
2023-05-06T04:03:08.317Z,100348.28
2023-05-06T04:06:23.364Z,100339.31
2023-05-06T04:09:26.246Z,100349.81
2023-05-06T04:12:30.713Z,100350.38
2023-05-06T04:15:35.401Z,100349.88
2023-05-06T04:18:41.867Z,100351.94
2023-05-06T04:21:49.175Z,100332.38
2023-05-06T04:24:54.038Z,100341.31
2023-05-06T04:27:56.961Z,100354.03
2023-05-06T04:31:02.370Z,100358.69
2023-05-06T04:34:16.759Z,100349.38
2023-05-06T04:37:21.249Z,100351.06
2023-05-06T04:40:28.721Z,100351.75
2023-05-06T04:43:31.675Z,100358.50
2023-05-06T04:46:42.927Z,100357.44
2023-05-06T04:49:47.669Z,100358.50
2023-05-06T04:52:51.220Z,100355.78
2023-05-06T04:55:56.276Z,100354.00
2023-05-06T04:58:59.792Z,100353.50
2023-05-06T05:02:03.796Z,100344.06
2023-05-06T05:05:07.423Z,100347.94
2023-05-06T05:08:13.407Z,100349.66
2023-05-06T05:11:16.735Z,100355.88
2023-05-06T05:14:19.591Z,100352.81
2023-05-06T05:17:22.623Z,100353.09
2023-05-06T05:20:26.607Z,100361.53
2023-05-06T05:23:29.454Z,100357.97
2023-05-06T05:26:32.198Z,100365.00
2023-05-06T05:29:36.669Z,100369.53
2023-05-06T05:32:42.168Z,100369.44
2023-05-06T05:35:45.564Z,100375.06
2023-05-06T05:38:50.205Z,100371.75
2023-05-06T05:41:54.886Z,100374.88
2023-05-06T05:44:57.868Z,100377.22
2023-05-06T05:48:01.257Z,100382.72
2023-05-06T05:51:04.613Z,100377.34
2023-05-06T05:54:07.932Z,100374.94
2023-05-06T05:57:11.387Z,100373.56
2023-05-06T06:00:15.729Z,100366.47
2023-05-06T06:03:21.268Z,100376.38
2023-05-06T06:06:24.597Z,100369.31
2023-05-06T06:09:28.233Z,100366.66
2023-05-06T06:12:31.434Z,100368.22
2023-05-06T06:15:35.805Z,100353.81
2023-05-06T06:18:39.505Z,100352.94
2023-05-06T06:21:42.752Z,100355.94
2023-05-06T06:24:45.789Z,100359.69
2023-05-06T06:27:48.503Z,100363.28
2023-05-06T06:30:51.345Z,100369.78
2023-05-06T06:33:54.147Z,100360.47
2023-05-06T06:36:56.916Z,100363.59
2023-05-06T06:39:59.657Z,100361.16
2023-05-06T06:43:02.560Z,100363.72
2023-05-06T06:46:23.834Z,100368.19
2023-05-06T06:49:27.620Z,100358.41
2023-05-06T06:52:30.448Z,100358.25
2023-05-06T06:55:33.496Z,100362.72
2023-05-06T06:58:36.408Z,100359.19
2023-05-06T07:01:41.150Z,100365.84
2023-05-06T07:04:44.510Z,100363.66
2023-05-06T07:07:47.457Z,100367.38
2023-05-06T07:10:50.256Z,100362.13
2023-05-06T07:13:53.047Z,100376.25
2023-05-06T07:16:56.095Z,100373.88
2023-05-06T07:19:58.940Z,100372.78
2023-05-06T07:23:01.688Z,100368.44
2023-05-06T07:26:04.668Z,100375.84
2023-05-06T07:29:08.031Z,100367.22
2023-05-06T07:32:11.168Z,100369.53
2023-05-06T07:35:13.972Z,100373.91
2023-05-06T07:38:16.814Z,100370.78
2023-05-06T07:41:19.568Z,100369.34
2023-05-06T07:44:22.531Z,100375.88
2023-05-06T07:47:32.645Z,100373.56
2023-05-06T07:50:35.685Z,100375.13
2023-05-06T07:53:40.335Z,100378.56
2023-05-06T07:56:44.110Z,100370.69
2023-05-06T07:59:49.513Z,100375.66
2023-05-06T08:02:52.432Z,100376.63
2023-05-06T08:05:55.530Z,100373.22
2023-05-06T08:08:58.601Z,100368.41
2023-05-06T08:12:02.222Z,100379.59
2023-05-06T08:15:05.449Z,100384.03
2023-05-06T08:18:21.087Z,100382.09
2023-05-06T08:21:25.458Z,100379.59
2023-05-06T08:24:28.852Z,100376.50
2023-05-06T08:27:32.346Z,100380.50
2023-05-06T08:30:35.127Z,100389.06
2023-05-06T08:33:37.830Z,100382.59
2023-05-06T08:36:40.588Z,100382.44
2023-05-06T08:39:43.459Z,100378.34
2023-05-06T08:42:48.144Z,100379.06
2023-05-06T08:45:51.116Z,100375.03
2023-05-06T08:48:53.902Z,100379.69
2023-05-06T08:51:57.308Z,100376.31
2023-05-06T08:55:04.993Z,100375.19
2023-05-06T08:58:11.199Z,100370.06
2023-05-06T09:01:16.055Z,100369.75
2023-05-06T09:04:19.585Z,100369.94
2023-05-06T09:07:23.428Z,100374.56
2023-05-06T09:10:31.956Z,100370.44
2023-05-06T09:13:35.294Z,100364.47
2023-05-06T09:16:39.883Z,100366.25
2023-05-06T09:19:43.001Z,100369.88
2023-05-06T09:22:45.850Z,100370.03
2023-05-06T09:25:51.231Z,100368.75
2023-05-06T09:28:55.007Z,100370.19
2023-05-06T09:31:58.293Z,100369.28
2023-05-06T09:35:02.298Z,100360.94
2023-05-06T09:38:07.134Z,100357.63
2023-05-06T09:41:11.414Z,100355.25
2023-05-06T09:44:15.616Z,100357.16
2023-05-06T09:47:18.754Z,100347.53
2023-05-06T09:50:22.871Z,100334.44
2023-05-06T09:53:28.210Z,100339.66
2023-05-06T09:56:31.713Z,100330.78
2023-05-06T09:59:36.207Z,100336.34
2023-05-06T10:02:41.595Z,100321.09
2023-05-06T10:05:46.287Z,100320.88
2023-05-06T10:08:49.584Z,100313.28
2023-05-06T10:11:53.843Z,100319.50
2023-05-06T10:14:56.862Z,100309.41
2023-05-06T10:18:01.930Z,100300.59
2023-05-06T10:21:10.109Z,100293.97
2023-05-06T10:24:16.446Z,100292.66
2023-05-06T10:27:23.683Z,100286.19
2023-05-06T10:30:27.602Z,100284.13
2023-05-06T10:33:31.528Z,100275.34
2023-05-06T10:36:36.493Z,100276.41
2023-05-06T10:39:42.325Z,100280.38
2023-05-06T10:42:45.115Z,100280.66
2023-05-06T10:46:00.671Z,100270.00
2023-05-06T10:49:06.834Z,100263.91
2023-05-06T10:52:12.541Z,100253.00
2023-05-06T10:55:32.877Z,100260.97
2023-05-06T10:58:36.634Z,100258.31
2023-05-06T11:01:44.888Z,100246.63
2023-05-06T11:04:52.741Z,100243.19
2023-05-06T11:08:09.186Z,100233.88
2023-05-06T11:11:48.992Z,100250.53
2023-05-06T11:14:51.997Z,100240.47
2023-05-06T11:17:56.735Z,100242.66
2023-05-06T11:21:05.255Z,100243.97
2023-05-06T11:24:08.785Z,100254.84
2023-05-06T11:27:11.691Z,100246.59
2023-05-06T11:30:15.336Z,100256.72
2023-05-06T11:33:19.789Z,100251.97
2023-05-06T11:36:23.018Z,100249.56
2023-05-06T11:39:30.961Z,100246.28
2023-05-06T11:42:34.013Z,100246.78
2023-05-06T11:45:44.819Z,100248.63
2023-05-06T11:48:47.860Z,100261.78
2023-05-06T11:51:50.673Z,100257.78
2023-05-06T11:54:54.070Z,100261.66
2023-05-06T11:57:56.959Z,100249.78
2023-05-06T12:01:02.658Z,100244.63
2023-05-06T12:04:06.212Z,100247.44
2023-05-06T12:07:11.120Z,100239.22
2023-05-06T12:10:14.456Z,100238.94
2023-05-06T12:13:18.582Z,100240.59
2023-05-06T12:16:22.984Z,100234.44
2023-05-06T12:19:26.704Z,100232.03
2023-05-06T12:22:29.465Z,100222.66
2023-05-06T12:25:36.856Z,100229.31
2023-05-06T12:28:42.723Z,100225.13
2023-05-06T12:31:47.434Z,100231.06
2023-05-06T12:34:50.367Z,100236.91
2023-05-06T12:37:53.242Z,100227.44
2023-05-06T12:40:56.110Z,100230.09
2023-05-06T12:43:58.898Z,100220.22
2023-05-06T12:47:03.245Z,100222.38
2023-05-06T12:50:06.302Z,100211.69
2023-05-06T12:53:13.455Z,100210.34
2023-05-06T12:56:16.668Z,100204.34
2023-05-06T12:59:19.407Z,100204.44
2023-05-06T13:02:22.222Z,100198.78
2023-05-06T13:05:25.108Z,100197.03
2023-05-06T13:08:28.630Z,100193.25
2023-05-06T13:11:31.419Z,100196.88
2023-05-06T13:14:34.242Z,100190.97
2023-05-06T13:17:37.226Z,100184.13
2023-05-06T13:20:40.832Z,100187.28
2023-05-06T13:23:47.697Z,100186.47
2023-05-06T13:26:50.517Z,100177.03
2023-05-06T13:29:53.298Z,100180.06
2023-05-06T13:32:56.418Z,100169.97
2023-05-06T13:35:59.285Z,100168.78
2023-05-06T13:39:02.074Z,100173.72
2023-05-06T13:42:06.716Z,100168.31
2023-05-06T13:45:11.798Z,100166.13
2023-05-06T13:48:15.013Z,100152.69
2023-05-06T13:51:19.052Z,100159.97
2023-05-06T13:54:21.876Z,100146.88
2023-05-06T13:57:26.069Z,100155.53
2023-05-06T14:00:28.985Z,100154.22
2023-05-06T14:03:31.777Z,100153.34
2023-05-06T14:06:34.593Z,100150.41
2023-05-06T14:09:37.420Z,100151.50
2023-05-06T14:12:40.704Z,100144.47
2023-05-06T14:15:43.591Z,100147.97
2023-05-06T14:18:46.480Z,100144.53
2023-05-06T14:21:49.292Z,100143.63
2023-05-06T14:24:52.168Z,100141.69
2023-05-06T14:27:55.207Z,100136.72
2023-05-06T14:30:58.484Z,100135.00
2023-05-06T14:34:02.765Z,100135.91
2023-05-06T14:37:06.091Z,100130.44
2023-05-06T14:40:10.241Z,100137.34
2023-05-06T14:43:13.068Z,100142.81
2023-05-06T14:46:16.296Z,100135.28
2023-05-06T14:49:19.271Z,100136.16
2023-05-06T14:52:22.156Z,100132.44
2023-05-06T14:55:25.713Z,100132.06
2023-05-06T14:58:28.608Z,100123.53
2023-05-06T15:01:33.698Z,100128.69
2023-05-06T15:04:36.918Z,100123.44
2023-05-06T15:07:39.720Z,100122.75
2023-05-06T15:10:42.506Z,100122.44
2023-05-06T15:13:45.336Z,100119.63
2023-05-06T15:16:48.171Z,100125.34
2023-05-06T15:19:51.237Z,100119.66
2023-05-06T15:22:54.102Z,100120.16
2023-05-06T15:25:58.008Z,100121.09
2023-05-06T15:29:01.182Z,100121.78
2023-05-06T15:32:04.110Z,100114.75
2023-05-06T15:35:07.226Z,100122.31
2023-05-06T15:38:09.995Z,100119.06
2023-05-06T15:41:12.775Z,100125.47
2023-05-06T15:44:16.390Z,100121.44
2023-05-06T15:47:19.736Z,100127.66
2023-05-06T15:50:32.420Z,100130.91
2023-05-06T15:53:42.235Z,100120.25
2023-05-06T15:56:46.208Z,100119.66
2023-05-06T15:59:48.958Z,100118.25
2023-05-06T16:02:51.834Z,100103.72
2023-05-06T16:05:57.879Z,100102.66
2023-05-06T16:09:00.959Z,100096.63
2023-05-06T16:12:04.189Z,100104.06
2023-05-06T16:15:08.404Z,100102.69
2023-05-06T16:18:11.306Z,100104.41
2023-05-06T16:21:14.133Z,100105.19
2023-05-06T16:24:16.918Z,100103.38
2023-05-06T16:27:19.813Z,100110.66
2023-05-06T16:30:23.104Z,100113.38
2023-05-06T16:33:25.956Z,100110.56
2023-05-06T16:36:28.941Z,100108.13
2023-05-06T16:39:31.687Z,100109.47
2023-05-06T16:42:34.673Z,100113.47
2023-05-06T16:45:38.416Z,100116.38
2023-05-06T16:48:41.354Z,100113.69
2023-05-06T16:51:44.203Z,100115.22
2023-05-06T16:54:47.141Z,100115.44
2023-05-06T16:57:50.271Z,100123.63
2023-05-06T17:00:54.479Z,100120.94
2023-05-06T17:03:57.325Z,100131.53
2023-05-06T17:07:00.071Z,100130.09
2023-05-06T17:10:02.869Z,100122.94
2023-05-06T17:13:05.962Z,100131.63
2023-05-06T17:16:08.855Z,100129.63
2023-05-06T17:19:12.304Z,100131.53
2023-05-06T17:22:15.111Z,100130.75
2023-05-06T17:25:18.268Z,100135.59
2023-05-06T17:28:21.299Z,100141.78
2023-05-06T17:31:24.472Z,100133.59
2023-05-06T17:34:27.415Z,100145.72
2023-05-06T17:37:31.221Z,100149.53
2023-05-06T17:40:34.068Z,100146.22
2023-05-06T17:43:39.406Z,100147.47
2023-05-06T17:46:42.206Z,100142.91
2023-05-06T17:49:45.778Z,100138.22
2023-05-06T17:52:51.038Z,100137.59
2023-05-06T17:55:53.859Z,100135.28
2023-05-06T17:59:01.350Z,100139.59
2023-05-06T18:02:04.358Z,100140.66
2023-05-06T18:05:08.436Z,100149.91
2023-05-06T18:08:13.770Z,100147.91
2023-05-06T18:11:17.573Z,100144.84
2023-05-06T18:14:20.818Z,100154.38
2023-05-06T18:17:23.671Z,100156.19
2023-05-06T18:20:27.185Z,100161.09
2023-05-06T18:23:30.205Z,100159.28
2023-05-06T18:26:43.206Z,100167.56
2023-05-06T18:29:48.367Z,100172.13
2023-05-06T18:32:53.320Z,100174.34
2023-05-06T18:35:57.372Z,100182.47
2023-05-06T18:39:00.179Z,100188.88
2023-05-06T18:42:04.024Z,100191.19
2023-05-06T18:45:07.447Z,100189.81
2023-05-06T18:48:11.077Z,100187.28
2023-05-06T18:51:17.208Z,100194.22
2023-05-06T18:54:20.044Z,100198.81
2023-05-06T18:57:24.136Z,100196.16
2023-05-06T19:00:28.344Z,100198.00
2023-05-06T19:03:33.386Z,100187.91
2023-05-06T19:06:38.512Z,100202.72
2023-05-06T19:09:43.168Z,100200.13
2023-05-06T19:12:46.143Z,100200.78
2023-05-06T19:15:48.948Z,100199.63
2023-05-06T19:18:51.709Z,100200.13
2023-05-06T19:21:54.542Z,100195.16
2023-05-06T19:24:57.292Z,100199.47
2023-05-06T19:28:00.011Z,100193.59
2023-05-06T19:31:09.670Z,100200.97
2023-05-06T19:34:12.550Z,100199.94
2023-05-06T19:37:15.935Z,100200.81
2023-05-06T19:40:22.829Z,100198.97
2023-05-06T19:43:25.732Z,100196.66
2023-05-06T19:46:28.661Z,100195.88
2023-05-06T19:49:32.633Z,100196.75
2023-05-06T19:52:35.938Z,100205.00
2023-05-06T19:55:38.786Z,100211.66
2023-05-06T19:58:41.958Z,100210.25
2023-05-06T20:01:44.869Z,100212.53
2023-05-06T20:04:47.651Z,100216.75
2023-05-06T20:07:51.477Z,100219.25
2023-05-06T20:10:54.312Z,100221.91
2023-05-06T20:13:57.397Z,100225.31
2023-05-06T20:17:02.628Z,100227.97
2023-05-06T20:20:10.052Z,100231.56
2023-05-06T20:23:13.249Z,100223.47
2023-05-06T20:26:16.117Z,100213.81
2023-05-06T20:29:19.317Z,100210.81
2023-05-06T20:32:22.200Z,100208.59
2023-05-06T20:35:25.766Z,100210.03
2023-05-06T20:38:30.261Z,100213.84
2023-05-06T20:41:33.142Z,100214.09
2023-05-06T20:44:35.876Z,100212.50
2023-05-06T20:47:38.808Z,100210.94
2023-05-06T20:50:41.870Z,100217.44
2023-05-06T20:53:46.301Z,100207.16
2023-05-06T20:56:49.139Z,100209.19
2023-05-06T20:59:52.717Z,100222.91
2023-05-06T21:02:55.736Z,100228.03
2023-05-06T21:05:58.505Z,100232.28
2023-05-06T21:09:01.481Z,100233.94
2023-05-06T21:12:04.587Z,100242.38
2023-05-06T21:15:08.386Z,100226.69
2023-05-06T21:18:11.418Z,100221.88
2023-05-06T21:21:14.332Z,100217.47
2023-05-06T21:24:17.334Z,100221.50
2023-05-06T21:27:20.125Z,100221.09
2023-05-06T21:30:22.862Z,100222.50
2023-05-06T21:33:25.653Z,100230.97
2023-05-06T21:36:28.449Z,100225.13
2023-05-06T21:39:31.482Z,100230.78
2023-05-06T21:42:34.181Z,100225.53
2023-05-06T21:45:37.259Z,100226.13
2023-05-06T21:48:39.953Z,100215.44
2023-05-06T21:51:42.852Z,100234.41
2023-05-06T21:54:46.507Z,100239.41
2023-05-06T21:57:49.478Z,100237.56
2023-05-06T22:00:52.590Z,100237.75
2023-05-06T22:03:55.746Z,100233.94
2023-05-06T22:06:58.650Z,100225.88
2023-05-06T22:10:01.611Z,100227.47
2023-05-06T22:13:04.539Z,100228.47
2023-05-06T22:16:07.999Z,100229.72
2023-05-06T22:19:10.775Z,100230.09
2023-05-06T22:22:13.565Z,100224.25
2023-05-06T22:25:16.373Z,100222.63
2023-05-06T22:28:20.049Z,100223.03
2023-05-06T22:31:24.785Z,100223.38
2023-05-06T22:34:27.873Z,100222.00
2023-05-06T22:37:31.037Z,100223.75
2023-05-06T22:40:33.906Z,100222.34
2023-05-06T22:43:36.666Z,100215.91
2023-05-06T22:46:39.368Z,100225.56
2023-05-06T22:49:43.008Z,100227.97
2023-05-06T22:52:45.810Z,100231.94
2023-05-06T22:55:48.858Z,100228.06
2023-05-06T22:58:51.960Z,100211.16
2023-05-06T23:01:55.276Z,100216.97
2023-05-06T23:04:59.499Z,100227.63
2023-05-06T23:08:02.245Z,100207.47
2023-05-06T23:11:05.602Z,100221.84
2023-05-06T23:14:08.983Z,100219.81
2023-05-06T23:17:12.506Z,100218.38
2023-05-06T23:20:17.293Z,100216.13
2023-05-06T23:23:20.207Z,100219.13
2023-05-06T23:26:23.020Z,100215.66
2023-05-06T23:29:25.858Z,100216.38
2023-05-06T23:32:28.718Z,100210.31
2023-05-06T23:35:32.535Z,100206.41
2023-05-06T23:38:35.870Z,100207.44
2023-05-06T23:41:38.696Z,100210.88
2023-05-06T23:44:41.682Z,100203.50
2023-05-06T23:47:45.386Z,100204.06
2023-05-06T23:50:48.688Z,100208.97
2023-05-06T23:53:51.534Z,100199.94
2023-05-06T23:56:55.794Z,100201.16
2023-05-06T23:59:58.583Z,100197.38
